Time;durP1;ratioP1;P1;durP2;ratioP2;P2;SDS_P1;SDS_P2;PMS_P1;PMS_P2;Temp;Humidity;BMP_temperature;BMP_pressure;BME280_temperature;BME280_humidity;BME280_pressure;Samples;Min_cycle;Max_cycle;Signal;HPM_P1;HPM_P2
2024/03/30 00:02:28;;;;;;;2.20;2.10;;;10.00;99.90;;;;;;4953984;29;20216;-61
2024/03/30 00:04:54;;;;;;;2.07;1.97;;;10.00;99.90;;;;;;4953642;28;20228;-61
2024/03/30 00:07:22;;;;;;;1.93;1.90;;;10.00;99.90;;;;;;4937968;29;20625;-61
2024/03/30 00:13:32;;;;;;;1.50;1.50;;;10.00;99.90;;;;;;4934335;29;20223;-61
2024/03/30 00:19:41;;;;;;;1.77;1.67;;;9.90;99.90;;;;;;4935879;29;20279;-61
2024/03/30 00:22:07;;;;;;;2.07;1.97;;;9.90;99.90;;;;;;4934322;29;20263;-61
2024/03/30 00:24:35;;;;;;;1.53;1.43;;;9.90;99.90;;;;;;4918570;29;20242;-61
2024/03/30 00:27:01;;;;;;;1.60;1.60;;;9.90;99.90;;;;;;4934434;29;20220;-61
2024/03/30 00:29:30;;;;;;;1.50;1.50;;;9.90;99.90;;;;;;4934657;29;20283;-62
2024/03/30 00:39:07;;;;;;;1.20;1.20;;;9.90;99.90;;;;;;4954665;28;20280;-61
2024/03/30 00:45:17;;;;;;;1.30;1.30;;;9.90;99.90;;;;;;4935816;29;20223;-60
2024/03/30 00:47:43;;;;;;;2.00;1.50;;;9.90;99.90;;;;;;4934099;29;20197;-61
2024/03/30 00:50:11;;;;;;;1.30;1.30;;;9.90;99.90;;;;;;4959123;28;20261;-60
2024/03/30 00:52:37;;;;;;;1.20;1.10;;;9.90;99.90;;;;;;4971403;28;20262;-61
2024/03/30 00:58:45;;;;;;;1.23;1.23;;;9.90;99.90;;;;;;4935352;29;20232;-61
2024/03/30 01:01:16;;;;;;;1.40;1.40;;;9.90;99.90;;;;;;4941878;28;20227;-61
2024/03/30 01:03:44;;;;;;;1.30;1.30;;;9.90;99.90;;;;;;4973822;28;20310;-61
2024/03/30 01:06:11;;;;;;;1.40;1.40;;;9.90;99.90;;;;;;4976342;28;20306;-61
2024/03/30 01:12:20;;;;;;;1.47;1.40;;;9.80;99.90;;;;;;4977362;28;20219;-61
2024/03/30 01:14:48;;;;;;;1.53;1.43;;;9.80;99.90;;;;;;4976222;28;20618;-61
2024/03/30 01:17:18;;;;;;;1.50;1.50;;;9.80;99.90;;;;;;4970761;28;20625;-61
2024/03/30 01:19:44;;;;;;;1.50;1.50;;;9.80;99.90;;;;;;4956554;29;20585;-61
2024/03/30 01:22:13;;;;;;;1.53;1.43;;;9.80;99.90;;;;;;4956434;29;20618;-61
2024/03/30 01:24:40;;;;;;;1.63;1.50;;;9.70;99.90;;;;;;4956461;29;20278;-61
2024/03/30 01:27:10;;;;;;;1.53;1.53;;;9.60;99.90;;;;;;4956626;29;20307;-61
2024/03/30 01:29:37;;;;;;;1.50;1.50;;;9.60;99.90;;;;;;4956611;28;20214;-61
2024/03/30 01:32:25;;;;;;;1.77;1.70;;;9.50;99.90;;;;;;4940485;29;20206;-61
2024/03/30 01:34:52;;;;;;;1.87;1.80;;;9.50;99.90;;;;;;4947428;29;20315;-61
2024/03/30 01:37:19;;;;;;;1.60;1.60;;;9.50;99.90;;;;;;4925524;29;20303;-60
2024/03/30 01:39:46;;;;;;;2.10;1.90;;;9.50;99.90;;;;;;4947223;28;20224;-61
2024/03/30 01:42:14;;;;;;;2.07;1.97;;;9.40;99.90;;;;;;4954498;28;20310;-61
2024/03/30 01:44:40;;;;;;;1.90;1.87;;;9.30;99.90;;;;;;4960194;28;20275;-61
2024/03/30 01:47:09;;;;;;;1.90;1.90;;;9.30;99.90;;;;;;4951169;29;20201;-62
2024/03/30 01:49:38;;;;;;;1.90;1.80;;;9.30;99.90;;;;;;4973768;28;20274;-61
2024/03/30 01:52:05;;;;;;;2.00;1.90;;;9.20;99.90;;;;;;4960503;28;20223;-61
2024/03/30 01:54:33;;;;;;;1.90;1.87;;;9.20;99.90;;;;;;4949811;29;20363;-60
2024/03/30 01:57:02;;;;;;;1.90;1.80;;;9.20;99.90;;;;;;4956957;28;20674;-61
2024/03/30 01:59:28;;;;;;;2.03;1.93;;;9.20;99.90;;;;;;4945619;28;20196;-61
2024/03/30 02:01:56;;;;;;;1.83;1.73;;;9.20;99.90;;;;;;4954060;28;20238;-60
2024/03/30 02:04:24;;;;;;;2.27;2.10;;;9.10;99.90;;;;;;4948577;28;20226;-60
2024/03/30 02:06:53;;;;;;;2.03;1.93;;;9.10;99.90;;;;;;4959830;28;20232;-60
2024/03/30 02:09:20;;;;;;;2.50;2.10;;;9.10;99.90;;;;;;4945048;28;20220;-60
2024/03/30 02:11:48;;;;;;;2.00;2.00;;;9.10;99.90;;;;;;4946589;28;20276;-61
2024/03/30 02:14:14;;;;;;;2.53;2.27;;;9.10;99.90;;;;;;4946507;28;20691;-61
2024/03/30 02:16:41;;;;;;;2.50;2.30;;;9.10;99.90;;;;;;4949576;29;20510;-61
2024/03/30 02:19:09;;;;;;;2.40;2.20;;;9.10;99.90;;;;;;4933033;29;20702;-61
2024/03/30 02:21:37;;;;;;;2.00;2.00;;;9.10;99.90;;;;;;4947004;28;20220;-60
2024/03/30 02:24:06;;;;;;;2.23;2.13;;;9.10;99.90;;;;;;4945836;28;20220;-61
2024/03/30 02:26:33;;;;;;;2.30;2.20;;;9.10;99.90;;;;;;4950399;28;20200;-59
2024/03/30 02:29:04;;;;;;;2.63;2.20;;;9.10;99.90;;;;;;4946550;28;20208;-61
2024/03/30 02:31:32;;;;;;;2.40;2.30;;;9.10;99.90;;;;;;4944344;28;20220;-61
2024/03/30 02:34:18;;;;;;;2.40;2.30;;;9.10;99.90;;;;;;4946312;28;20238;-61
2024/03/30 02:37:23;;;;;;;2.10;2.00;;;9.00;99.90;;;;;;4946262;28;20331;-61
2024/03/30 02:39:51;;;;;;;2.30;2.20;;;9.10;99.90;;;;;;4948035;28;20319;-61
2024/03/30 02:42:19;;;;;;;2.60;2.50;;;9.00;99.90;;;;;;4950037;28;20235;-60
2024/03/30 02:44:45;;;;;;;2.40;2.30;;;9.00;99.90;;;;;;4949087;28;20196;-61
2024/03/30 02:47:12;;;;;;;2.90;2.50;;;9.00;99.90;;;;;;4932885;29;20210;-61
2024/03/30 02:49:39;;;;;;;3.53;2.40;;;9.00;99.90;;;;;;4946692;28;20212;-61
2024/03/30 02:52:06;;;;;;;2.77;2.57;;;9.00;99.90;;;;;;4938072;28;20216;-61
2024/03/30 02:54:33;;;;;;;3.10;2.37;;;9.00;99.90;;;;;;4940586;28;20311;-61
2024/03/30 02:57:01;;;;;;;2.53;2.40;;;9.00;99.90;;;;;;4948191;28;20594;-61
2024/03/30 02:59:28;;;;;;;2.80;2.60;;;9.00;99.90;;;;;;4938366;29;20239;-61
2024/03/30 03:01:55;;;;;;;3.37;2.70;;;9.00;99.90;;;;;;4953226;28;20220;-61
2024/03/30 03:04:22;;;;;;;2.67;2.50;;;9.00;99.90;;;;;;4945107;28;20224;-61
2024/03/30 03:06:49;;;;;;;3.00;2.80;;;9.00;99.90;;;;;;4945868;28;20224;-61
2024/03/30 03:09:16;;;;;;;2.90;2.70;;;9.00;99.90;;;;;;4950304;28;20308;-61
2024/03/30 03:11:43;;;;;;;2.43;2.33;;;9.00;99.90;;;;;;4943513;28;20199;-61
2024/03/30 03:14:11;;;;;;;3.10;2.83;;;9.00;99.90;;;;;;4950776;28;20196;-61
2024/03/30 03:16:38;;;;;;;2.93;2.70;;;9.00;99.90;;;;;;4947100;28;20212;-61
2024/03/30 03:19:05;;;;;;;3.20;3.00;;;9.00;99.90;;;;;;4942358;28;20220;-61
2024/03/30 03:21:32;;;;;;;3.07;2.87;;;8.90;99.90;;;;;;4949170;28;20230;-61
2024/03/30 03:23:58;;;;;;;2.83;2.63;;;8.90;99.90;;;;;;4946934;29;20224;-61
2024/03/30 03:26:26;;;;;;;3.13;2.93;;;8.90;99.90;;;;;;4949443;28;20202;-61
2024/03/30 03:28:52;;;;;;;3.30;3.10;;;8.90;99.90;;;;;;4946776;28;20220;-61
2024/03/30 03:31:21;;;;;;;3.20;3.00;;;8.90;99.90;;;;;;4949315;28;20215;-61
2024/03/30 03:33:49;;;;;;;5.53;3.20;;;8.90;99.90;;;;;;4949279;28;20322;-60
2024/03/30 03:36:18;;;;;;;3.00;2.80;;;8.90;99.90;;;;;;4951687;28;20314;-61
2024/03/30 03:38:46;;;;;;;3.50;3.20;;;8.90;99.90;;;;;;4948521;28;20196;-61
2024/03/30 03:41:13;;;;;;;4.10;3.80;;;8.90;99.90;;;;;;4947703;28;20208;-61
2024/03/30 03:43:40;;;;;;;3.40;3.20;;;8.90;99.90;;;;;;4949138;28;20231;-61
2024/03/30 03:46:08;;;;;;;3.73;3.50;;;8.90;99.90;;;;;;4947242;28;20305;-60
2024/03/30 03:48:55;;;;;;;4.23;3.70;;;8.90;99.90;;;;;;4945609;28;20270;-61
2024/03/30 03:51:22;;;;;;;4.10;3.80;;;8.90;99.90;;;;;;4957948;28;20225;-61
2024/03/30 03:53:49;;;;;;;6.60;3.73;;;8.80;99.90;;;;;;4951100;28;20254;-61
2024/03/30 03:56:16;;;;;;;3.70;3.40;;;8.90;99.90;;;;;;4942415;28;20259;-61
2024/03/30 03:58:44;;;;;;;4.03;3.50;;;8.90;99.90;;;;;;4944705;28;20230;-61
2024/03/30 04:01:11;;;;;;;4.37;3.97;;;8.90;99.90;;;;;;4949880;28;20238;-61
2024/03/30 04:03:41;;;;;;;4.43;4.03;;;8.90;99.90;;;;;;4941238;28;20217;-61
2024/03/30 04:06:10;;;;;;;4.50;4.20;;;8.90;99.90;;;;;;4943656;28;20307;-61
2024/03/30 04:08:38;;;;;;;4.20;3.80;;;8.90;99.90;;;;;;4947689;28;20205;-61
2024/03/30 04:11:06;;;;;;;4.13;3.73;;;8.90;99.90;;;;;;4930448;28;20280;-61
2024/03/30 04:13:34;;;;;;;4.30;3.90;;;8.90;99.90;;;;;;4952325;28;20221;-61
2024/03/30 04:16:02;;;;;;;4.90;4.47;;;8.90;99.90;;;;;;4952110;28;20226;-61
2024/03/30 04:18:29;;;;;;;4.40;4.10;;;8.90;99.90;;;;;;4947835;28;20227;-61
2024/03/30 04:20:57;;;;;;;6.70;4.07;;;8.90;99.90;;;;;;4946117;28;20236;-61
2024/03/30 04:23:28;;;;;;;4.30;4.00;;;8.90;99.90;;;;;;4950407;28;20212;-61
2024/03/30 04:26:05;;;;;;;4.40;3.80;;;8.90;99.90;;;;;;4952679;28;20224;-61
2024/03/30 04:28:33;;;;;;;4.43;3.90;;;8.90;99.90;;;;;;4941846;28;20275;-61
2024/03/30 04:31:02;;;;;;;4.40;3.63;;;8.90;99.90;;;;;;4945421;28;20231;-61
2024/03/30 04:33:29;;;;;;;5.23;4.57;;;8.90;99.90;;;;;;4953562;28;20238;-61
2024/03/30 04:35:57;;;;;;;4.37;4.07;;;8.90;99.90;;;;;;4955020;28;20238;-61
2024/03/30 04:38:27;;;;;;;5.17;4.67;;;8.90;99.90;;;;;;4949989;28;20195;-61
2024/03/30 04:40:59;;;;;;;5.90;5.37;;;8.90;99.90;;;;;;4947053;28;20216;-61
2024/03/30 04:43:29;;;;;;;8.87;5.70;;;8.90;99.90;;;;;;4954964;28;20220;-61
2024/03/30 04:45:55;;;;;;;8.67;5.63;;;8.90;99.90;;;;;;4952199;28;20638;-62
2024/03/30 04:48:24;;;;;;;7.63;5.40;;;8.80;99.90;;;;;;4951820;28;20314;-61
2024/03/30 04:50:51;;;;;;;6.00;5.40;;;8.80;99.90;;;;;;4951311;28;20197;-61
2024/03/30 04:53:20;;;;;;;7.93;5.03;;;8.80;99.90;;;;;;4948551;28;20214;-61
2024/03/30 04:55:51;;;;;;;7.27;5.57;;;8.80;99.90;;;;;;4949801;28;20311;-61
2024/03/30 04:58:21;;;;;;;9.23;5.60;;;8.80;99.90;;;;;;4928124;28;20303;-61
2024/03/30 05:00:47;;;;;;;10.07;5.77;;;8.80;99.90;;;;;;4956886;28;20232;-62
2024/03/30 05:03:15;;;;;;;9.47;5.77;;;8.80;99.90;;;;;;4948355;28;20255;-61
2024/03/30 05:05:42;;;;;;;7.40;5.67;;;8.80;99.90;;;;;;4948337;28;20275;-61
2024/03/30 05:08:10;;;;;;;10.50;6.43;;;8.80;99.90;;;;;;4952865;28;20196;-61
2024/03/30 05:10:37;;;;;;;10.67;6.10;;;8.80;99.90;;;;;;4948178;28;20363;-61
2024/03/30 05:13:06;;;;;;;10.97;6.17;;;8.70;99.90;;;;;;4947184;28;20216;-61
2024/03/30 05:15:32;;;;;;;9.57;6.03;;;8.80;99.90;;;;;;4950232;28;20232;-61
2024/03/30 05:18:00;;;;;;;8.73;5.77;;;8.80;99.90;;;;;;4943592;28;20231;-60
2024/03/30 05:23:13;;;;;;;8.57;5.73;;;8.80;99.90;;;;;;4951302;28;20227;-60
2024/03/30 05:25:41;;;;;;;7.37;5.30;;;8.80;99.90;;;;;;4954238;28;20223;-61
2024/03/30 05:28:10;;;;;;;7.97;6.50;;;8.80;99.90;;;;;;4946996;29;20270;-61
2024/03/30 05:30:38;;;;;;;12.70;6.10;;;8.80;99.90;;;;;;4949768;28;20224;-61
2024/03/30 05:33:04;;;;;;;7.93;5.87;;;8.80;99.90;;;;;;4943177;28;20224;-61
2024/03/30 05:35:32;;;;;;;7.97;6.00;;;8.80;99.90;;;;;;4938977;29;20322;-61
2024/03/30 05:37:58;;;;;;;12.90;6.83;;;8.80;99.90;;;;;;4945185;28;20642;-61
2024/03/30 05:40:26;;;;;;;10.87;6.57;;;8.80;99.90;;;;;;4945851;28;20698;-61
2024/03/30 05:42:52;;;;;;;9.97;6.67;;;8.80;99.90;;;;;;4937639;28;20236;-61
2024/03/30 05:45:21;;;;;;;9.90;7.47;;;8.80;99.90;;;;;;4950635;28;20220;-61
2024/03/30 05:47:49;;;;;;;12.17;7.77;;;8.80;99.90;;;;;;4955151;28;20195;-60
2024/03/30 05:50:16;;;;;;;12.23;7.37;;;8.80;99.90;;;;;;4936293;28;20278;-61
2024/03/30 05:53:05;;;;;;;12.33;6.70;;;8.80;99.90;;;;;;4952967;28;20215;-60
2024/03/30 05:55:34;;;;;;;9.77;5.50;;;8.80;99.90;;;;;;4944692;28;20220;-61
2024/03/30 05:58:03;;;;;;;7.80;5.83;;;8.80;99.90;;;;;;4949713;28;20278;-61
2024/03/30 06:00:32;;;;;;;7.70;5.83;;;8.80;99.90;;;;;;4945322;28;20286;-60
2024/03/30 06:02:59;;;;;;;10.57;6.33;;;8.80;99.90;;;;;;4952677;28;20311;-61
2024/03/30 06:05:26;;;;;;;13.37;7.53;;;8.90;99.90;;;;;;4949908;28;20196;-60
2024/03/30 06:07:53;;;;;;;9.10;6.90;;;8.90;99.90;;;;;;4957767;28;20311;-60
2024/03/30 06:10:20;;;;;;;9.93;7.10;;;8.90;99.90;;;;;;4946881;28;20220;-61
2024/03/30 06:12:47;;;;;;;10.07;7.00;;;8.90;99.90;;;;;;4948229;28;20299;-61
2024/03/30 06:15:17;;;;;;;8.90;6.73;;;8.90;99.90;;;;;;4950396;28;20228;-61
2024/03/30 06:17:45;;;;;;;9.57;6.30;;;8.90;99.90;;;;;;4952364;28;20721;-61
2024/03/30 06:20:12;;;;;;;10.17;5.90;;;8.90;99.90;;;;;;4945980;28;20586;-61
2024/03/30 06:22:40;;;;;;;8.47;6.00;;;8.90;99.90;;;;;;4949518;28;20378;-61
2024/03/30 06:25:08;;;;;;;8.47;6.70;;;9.00;99.90;;;;;;4954084;28;20223;-60
2024/03/30 06:27:34;;;;;;;10.67;6.17;;;9.00;99.90;;;;;;4943386;28;20255;-60
2024/03/30 06:30:02;;;;;;;5.40;4.97;;;9.00;99.90;;;;;;4950467;28;20220;-60
2024/03/30 06:32:28;;;;;;;5.87;4.87;;;8.90;99.90;;;;;;4950801;28;20224;-60
2024/03/30 06:34:57;;;;;;;6.70;4.70;;;9.00;99.90;;;;;;4950408;28;20247;-60
2024/03/30 06:37:23;;;;;;;4.87;4.37;;;9.00;99.90;;;;;;4946396;28;20556;-60
2024/03/30 06:45:20;;;;;;;5.47;4.97;;;9.10;99.90;;;;;;4947233;28;20224;-60
2024/03/30 06:47:48;;;;;;;6.37;4.57;;;9.10;99.90;;;;;;4948713;28;20250;-60
2024/03/30 06:50:16;;;;;;;5.23;4.73;;;9.10;99.90;;;;;;4948984;28;20516;-60
2024/03/30 06:52:44;;;;;;;7.57;6.00;;;9.10;99.90;;;;;;4951095;28;20216;-60
2024/03/30 06:55:10;;;;;;;7.93;5.50;;;9.10;99.90;;;;;;4950136;28;20733;-60
2024/03/30 06:57:38;;;;;;;9.03;6.37;;;9.10;99.90;;;;;;4948806;28;20669;-60
2024/03/30 07:00:06;;;;;;;10.20;6.50;;;9.10;99.90;;;;;;4939597;28;20248;-60
2024/03/30 07:02:33;;;;;;;8.40;6.47;;;9.10;99.90;;;;;;4950615;28;20224;-59
2024/03/30 07:05:00;;;;;;;7.73;6.20;;;9.10;99.90;;;;;;4943665;29;20308;-60
2024/03/30 07:07:29;;;;;;;8.17;6.50;;;9.10;99.90;;;;;;4948427;28;20282;-60
2024/03/30 07:09:56;;;;;;;9.53;6.53;;;9.10;99.90;;;;;;4938621;28;20303;-60
2024/03/30 07:12:23;;;;;;;9.13;6.73;;;9.20;99.90;;;;;;4943755;28;20221;-60
2024/03/30 07:14:49;;;;;;;7.70;6.53;;;9.20;99.90;;;;;;4946696;28;20280;-61
2024/03/30 07:17:17;;;;;;;6.47;5.40;;;9.30;99.90;;;;;;4949277;28;20196;-60
2024/03/30 07:19:43;;;;;;;6.03;5.50;;;9.30;99.90;;;;;;4947096;28;20222;-61
2024/03/30 07:22:11;;;;;;;5.73;5.17;;;9.30;99.90;;;;;;4940576;28;20307;-61
2024/03/30 07:24:38;;;;;;;6.67;5.70;;;9.30;99.90;;;;;;4944577;28;20237;-61
2024/03/30 07:27:25;;;;;;;5.80;5.20;;;9.40;99.90;;;;;;4950207;28;20296;-60
2024/03/30 07:29:51;;;;;;;5.33;4.83;;;9.40;99.90;;;;;;4954114;28;20307;-60
2024/03/30 07:32:19;;;;;;;5.10;4.60;;;9.50;99.90;;;;;;4946268;28;20292;-61
2024/03/30 07:34:46;;;;;;;6.77;4.83;;;9.50;99.90;;;;;;4946931;28;20258;-61
2024/03/30 07:37:14;;;;;;;5.80;5.30;;;9.50;99.90;;;;;;4949581;28;20693;-61
2024/03/30 07:39:42;;;;;;;5.60;5.00;;;9.40;99.90;;;;;;4945503;28;20588;-61
2024/03/30 07:42:10;;;;;;;5.17;4.80;;;9.50;99.90;;;;;;4944195;28;20215;-61
2024/03/30 07:44:38;;;;;;;5.00;4.60;;;9.50;99.90;;;;;;4941503;28;20219;-61
2024/03/30 07:47:07;;;;;;;4.50;4.27;;;9.30;99.90;;;;;;4947065;28;20666;-60
2024/03/30 07:49:33;;;;;;;3.23;3.10;;;9.20;99.90;;;;;;4940496;28;20228;-61
2024/03/30 07:52:02;;;;;;;3.10;3.00;;;9.10;99.90;;;;;;4938843;28;20303;-60
2024/03/30 07:54:28;;;;;;;3.03;2.83;;;9.10;99.90;;;;;;4952460;28;20719;-60
2024/03/30 07:56:58;;;;;;;3.60;2.73;;;9.30;99.90;;;;;;4950160;28;20216;-60
2024/03/30 07:59:26;;;;;;;5.37;4.97;;;9.40;99.90;;;;;;4951782;28;20227;-61
2024/03/30 08:01:53;;;;;;;4.37;4.00;;;9.50;99.90;;;;;;4942391;29;20231;-61
2024/03/30 08:04:21;;;;;;;5.83;3.90;;;9.50;99.90;;;;;;4947682;28;20224;-60
2024/03/30 08:06:51;;;;;;;4.03;3.83;;;9.50;99.90;;;;;;4944158;28;20231;-61
2024/03/30 08:09:18;;;;;;;3.10;2.90;;;9.60;99.90;;;;;;4945552;28;20267;-61
2024/03/30 08:11:45;;;;;;;3.03;2.83;;;9.60;99.90;;;;;;4949307;28;20283;-61
2024/03/30 08:14:14;;;;;;;2.37;2.27;;;9.70;99.90;;;;;;4945752;28;20193;-61
2024/03/30 08:16:41;;;;;;;2.23;2.13;;;9.80;99.90;;;;;;4949566;28;20234;-61
2024/03/30 08:19:10;;;;;;;2.60;2.40;;;9.80;99.90;;;;;;4940503;28;20212;-60
2024/03/30 08:21:38;;;;;;;2.70;2.50;;;9.80;99.90;;;;;;4946555;28;21164;-60
2024/03/30 08:24:05;;;;;;;2.93;2.80;;;9.90;99.90;;;;;;4939112;28;20247;-60
2024/03/30 08:26:33;;;;;;;3.07;2.93;;;10.00;99.90;;;;;;4947670;28;20668;-61
2024/03/30 08:29:00;;;;;;;3.97;3.77;;;10.00;99.90;;;;;;4954208;28;20251;-61
2024/03/30 08:31:29;;;;;;;4.60;4.20;;;10.10;99.90;;;;;;4948159;28;20990;-61
2024/03/30 08:33:56;;;;;;;5.20;4.70;;;10.10;99.90;;;;;;4944222;28;20208;-60
2024/03/30 08:36:23;;;;;;;4.03;3.83;;;10.10;99.90;;;;;;4948587;28;20231;-61
2024/03/30 08:38:50;;;;;;;4.60;4.30;;;10.00;99.90;;;;;;4941681;28;20189;-60
2024/03/30 08:41:17;;;;;;;4.70;4.40;;;10.10;99.90;;;;;;4949828;28;20509;-60
2024/03/30 08:43:44;;;;;;;5.87;4.03;;;10.10;99.90;;;;;;4943651;29;20228;-60
2024/03/30 08:46:12;;;;;;;5.03;4.63;;;10.00;99.90;;;;;;4954147;28;20220;-61
2024/03/30 08:48:40;;;;;;;4.97;4.67;;;10.00;99.90;;;;;;4952466;28;20220;-60
2024/03/30 08:51:08;;;;;;;6.20;5.70;;;10.00;99.90;;;;;;4950182;29;20223;-60
2024/03/30 08:53:34;;;;;;;6.63;6.13;;;9.90;99.90;;;;;;4947665;28;20606;-60
2024/03/30 08:56:03;;;;;;;6.50;5.83;;;10.00;99.90;;;;;;4961821;28;20302;-60
2024/03/30 08:58:30;;;;;;;7.43;6.40;;;9.90;99.90;;;;;;4939574;28;20220;-60
2024/03/30 09:00:58;;;;;;;7.90;6.27;;;9.90;99.90;;;;;;4949277;28;20243;-61
2024/03/30 09:03:24;;;;;;;7.67;6.97;;;9.90;99.90;;;;;;4948613;28;20224;-61
2024/03/30 09:05:53;;;;;;;7.57;6.97;;;9.90;99.90;;;;;;4948498;28;20283;-60
2024/03/30 09:08:19;;;;;;;8.07;7.27;;;9.90;99.90;;;;;;4951502;28;20788;-61
2024/03/30 09:10:47;;;;;;;9.67;7.97;;;10.00;99.90;;;;;;4945843;28;20216;-60
2024/03/30 09:13:13;;;;;;;7.60;6.90;;;10.00;99.90;;;;;;4945594;28;20216;-61
2024/03/30 09:15:41;;;;;;;7.10;6.40;;;10.00;99.90;;;;;;4949109;28;20307;-60
2024/03/30 09:18:07;;;;;;;6.97;6.37;;;10.00;99.90;;;;;;4949219;28;20654;-60
2024/03/30 09:20:34;;;;;;;7.40;6.50;;;10.00;99.90;;;;;;4943012;28;20192;-61
2024/03/30 09:23:02;;;;;;;6.57;5.97;;;10.10;99.90;;;;;;4947352;28;20221;-60
2024/03/30 09:25:32;;;;;;;8.13;7.33;;;10.20;99.90;;;;;;4949072;28;20331;-60
2024/03/30 09:27:59;;;;;;;8.10;7.40;;;10.30;99.90;;;;;;4949884;28;20235;-60
2024/03/30 09:30:26;;;;;;;7.70;6.90;;;10.30;99.90;;;;;;4951758;28;20238;-61
2024/03/30 09:33:11;;;;;;;8.17;7.47;;;10.30;99.90;;;;;;4950404;28;20220;-60
2024/03/30 09:35:39;;;;;;;6.67;6.17;;;10.20;99.90;;;;;;4950436;28;20326;-61
2024/03/30 09:38:07;;;;;;;6.57;5.97;;;10.20;99.90;;;;;;4949459;28;20279;-60
2024/03/30 09:40:36;;;;;;;5.13;4.80;;;10.30;99.90;;;;;;4948973;28;20579;-61
2024/03/30 09:43:03;;;;;;;5.53;5.03;;;10.40;99.90;;;;;;4952649;28;20861;-61
2024/03/30 09:45:31;;;;;;;5.60;5.20;;;10.50;99.90;;;;;;4952683;28;20595;-61
2024/03/30 09:48:00;;;;;;;5.83;5.23;;;10.50;99.90;;;;;;4942460;28;20313;-62
2024/03/30 09:50:28;;;;;;;6.63;6.03;;;10.60;99.90;;;;;;4949278;28;20399;-61
2024/03/30 09:52:55;;;;;;;5.90;5.40;;;10.70;99.90;;;;;;4943210;28;20359;-61
2024/03/30 09:55:26;;;;;;;5.80;5.30;;;10.60;99.90;;;;;;4944285;28;20626;-61
2024/03/30 09:57:55;;;;;;;5.70;5.30;;;10.70;99.90;;;;;;4953426;28;20227;-60
2024/03/30 10:00:22;;;;;;;7.43;6.63;;;10.80;99.90;;;;;;4947239;28;20231;-60
2024/03/30 10:02:49;;;;;;;6.13;5.70;;;10.90;99.90;;;;;;4949501;28;20204;-60
2024/03/30 10:05:16;;;;;;;4.80;4.50;;;10.90;99.90;;;;;;4950349;28;20217;-60
2024/03/30 10:07:50;;;;;;;5.53;5.00;;;10.90;99.90;;;;;;4945419;29;20252;-60
2024/03/30 10:10:18;;;;;;;7.03;6.33;;;11.00;99.90;;;;;;4951663;28;20248;-61
2024/03/30 10:12:53;;;;;;;6.73;5.93;;;10.90;99.90;;;;;;4950321;28;20223;-61
2024/03/30 10:15:28;;;;;;;7.47;6.50;;;10.90;99.90;;;;;;4948035;28;20221;-62
2024/03/30 10:17:55;;;;;;;4.67;4.37;;;11.00;99.90;;;;;;4947976;28;20619;-61
2024/03/30 10:20:23;;;;;;;6.43;5.83;;;11.00;99.90;;;;;;4946079;28;20201;-62
2024/03/30 10:22:49;;;;;;;7.57;6.80;;;10.90;99.90;;;;;;4942828;28;20308;-62
2024/03/30 10:25:18;;;;;;;6.23;5.73;;;10.90;99.90;;;;;;4951663;28;20598;-61
2024/03/30 10:27:47;;;;;;;5.60;5.27;;;10.90;99.90;;;;;;4951477;28;20738;-61
2024/03/30 10:30:14;;;;;;;5.23;4.73;;;10.80;99.90;;;;;;4959365;28;20266;-61
2024/03/30 10:32:41;;;;;;;4.67;4.43;;;10.70;99.90;;;;;;4938674;28;20283;-62
2024/03/30 10:35:09;;;;;;;5.57;5.17;;;10.60;99.90;;;;;;4948166;28;20282;-61
2024/03/30 10:37:35;;;;;;;5.90;5.40;;;10.60;99.90;;;;;;4950237;28;20228;-62
2024/03/30 10:40:05;;;;;;;4.90;4.60;;;10.60;99.90;;;;;;4954365;28;20619;-61
2024/03/30 10:42:32;;;;;;;4.63;4.33;;;10.60;99.90;;;;;;4940156;28;20613;-62
2024/03/30 10:45:02;;;;;;;4.20;3.90;;;10.60;99.90;;;;;;4946123;28;20628;-62
2024/03/30 10:47:29;;;;;;;4.70;4.30;;;10.50;99.90;;;;;;4957738;28;20282;-61
2024/03/30 10:49:57;;;;;;;5.37;5.07;;;10.50;99.90;;;;;;4954264;28;20227;-61
2024/03/30 10:52:24;;;;;;;4.57;4.20;;;10.50;99.90;;;;;;4947034;28;20295;-60
2024/03/30 10:54:52;;;;;;;4.50;4.10;;;10.50;99.90;;;;;;4954755;28;20219;-60
2024/03/30 10:57:19;;;;;;;4.17;3.80;;;10.50;99.90;;;;;;4948681;28;20255;-61
2024/03/30 10:59:47;;;;;;;4.87;4.20;;;10.60;99.90;;;;;;4952684;28;20207;-61
2024/03/30 11:02:17;;;;;;;3.90;3.70;;;10.60;99.90;;;;;;4947867;29;21710;-61
2024/03/30 11:04:45;;;;;;;4.43;4.13;;;10.70;99.90;;;;;;4947524;28;20302;-62
2024/03/30 11:07:14;;;;;;;4.83;4.40;;;10.90;99.90;;;;;;4951061;28;20650;-61
2024/03/30 11:09:44;;;;;;;4.47;4.07;;;10.80;99.90;;;;;;4943659;28;20300;-61
2024/03/30 11:12:12;;;;;;;5.97;5.00;;;10.80;99.90;;;;;;4951901;28;20804;-61
2024/03/30 11:14:40;;;;;;;4.43;4.13;;;10.90;99.90;;;;;;4951336;28;20201;-61
2024/03/30 11:17:13;;;;;;;4.37;3.93;;;10.90;99.90;;;;;;4949414;28;20197;-61
2024/03/30 11:19:49;;;;;;;5.60;4.47;;;10.90;99.90;;;;;;4952753;28;20219;-60
2024/03/30 11:22:37;;;;;;;4.50;4.20;;;10.90;99.90;;;;;;4948275;28;20232;-61
2024/03/30 11:25:10;;;;;;;4.60;4.30;;;10.90;99.90;;;;;;4949044;28;20242;-60
2024/03/30 11:27:46;;;;;;;5.47;4.97;;;10.90;99.90;;;;;;4950298;28;20706;-61
2024/03/30 11:30:28;;;;;;;4.37;4.07;;;10.90;99.90;;;;;;4942570;28;20232;-61
2024/03/30 11:33:05;;;;;;;3.73;3.53;;;10.80;99.90;;;;;;4953969;28;20223;-61
2024/03/30 11:35:41;;;;;;;4.23;3.93;;;10.80;99.90;;;;;;4950759;28;20589;-62
2024/03/30 11:38:09;;;;;;;3.87;3.67;;;10.80;99.90;;;;;;4953269;28;20221;-61
2024/03/30 11:40:44;;;;;;;4.13;3.93;;;10.80;99.90;;;;;;4953916;28;20211;-62
2024/03/30 11:43:23;;;;;;;4.10;3.80;;;10.80;99.90;;;;;;4949862;28;20598;-61
2024/03/30 11:45:51;;;;;;;3.80;3.60;;;10.80;99.90;;;;;;4941370;28;20226;-61
2024/03/30 11:48:19;;;;;;;4.23;3.83;;;11.00;99.90;;;;;;4932955;28;20312;-62
2024/03/30 11:50:50;;;;;;;3.80;3.60;;;11.20;99.90;;;;;;4939996;28;20191;-61
2024/03/30 11:53:18;;;;;;;3.40;3.30;;;11.40;99.90;;;;;;4943898;28;20667;-61
2024/03/30 11:55:49;;;;;;;4.63;3.40;;;11.50;99.90;;;;;;4934947;29;20224;-62
2024/03/30 11:58:20;;;;;;;2.93;2.83;;;11.80;99.90;;;;;;4952336;28;20215;-61
2024/03/30 12:00:54;;;;;;;2.20;2.20;;;11.90;99.90;;;;;;4946309;28;20303;-61
2024/03/30 12:03:39;;;;;;;2.30;2.30;;;11.90;99.90;;;;;;4945576;28;20303;-62
2024/03/30 12:06:19;;;;;;;1.90;1.90;;;12.00;99.90;;;;;;4947968;28;20319;-61
2024/03/30 12:08:47;;;;;;;2.50;2.40;;;12.00;99.90;;;;;;4943867;28;20200;-61
2024/03/30 12:11:16;;;;;;;2.50;2.37;;;12.10;99.90;;;;;;4945622;28;20282;-61
2024/03/30 12:13:43;;;;;;;2.33;2.23;;;12.20;99.90;;;;;;4942353;28;20220;-61
2024/03/30 12:16:10;;;;;;;2.58;2.47;;;12.20;99.90;;;;;;4948271;28;20571;-61
2024/03/30 12:18:37;;;;;;;2.50;2.40;;;12.30;99.90;;;;;;4950051;28;20294;-62
2024/03/30 12:21:05;;;;;;;2.70;2.60;;;12.40;99.90;;;;;;4946010;28;20255;-61
2024/03/30 12:23:34;;;;;;;2.73;2.63;;;12.40;99.90;;;;;;4945514;28;20679;-62
2024/03/30 12:26:03;;;;;;;2.80;2.70;;;12.10;99.90;;;;;;4943592;28;20258;-61
2024/03/30 12:28:31;;;;;;;3.03;2.87;;;12.00;99.90;;;;;;4942209;29;20220;-61
2024/03/30 12:30:58;;;;;;;3.60;3.30;;;11.70;99.90;;;;;;4950341;28;20232;-62
2024/03/30 12:33:25;;;;;;;3.20;3.00;;;11.60;99.90;;;;;;4939167;28;20263;-62
2024/03/30 12:35:53;;;;;;;4.10;2.80;;;11.50;99.90;;;;;;4950765;28;20226;-62
2024/03/30 12:38:21;;;;;;;2.90;2.80;;;11.40;99.90;;;;;;4953454;28;20193;-61
2024/03/30 12:40:51;;;;;;;2.73;2.63;;;11.40;99.90;;;;;;4938596;28;20247;-61
2024/03/30 12:43:18;;;;;;;2.53;2.40;;;11.50;99.90;;;;;;4927153;29;20311;-61
2024/03/30 12:45:45;;;;;;;2.73;2.63;;;11.50;99.90;;;;;;4944009;28;20239;-61
2024/03/30 12:48:12;;;;;;;2.33;2.20;;;11.50;99.90;;;;;;4933034;29;20242;-61
2024/03/30 12:50:58;;;;;;;1.80;1.70;;;11.60;99.90;;;;;;4927208;28;20731;-61
2024/03/30 12:53:24;;;;;;;2.13;2.03;;;11.70;99.90;;;;;;4945536;28;20727;-61
2024/03/30 12:55:55;;;;;;;1.63;1.63;;;11.80;99.90;;;;;;4938323;28;20836;-61
2024/03/30 12:58:23;;;;;;;1.93;1.83;;;11.80;99.90;;;;;;4944080;29;20224;-61
2024/03/30 13:00:50;;;;;;;2.10;2.00;;;11.70;99.90;;;;;;4949802;28;20299;-62
2024/03/30 13:03:19;;;;;;;1.97;1.80;;;11.80;99.90;;;;;;4948016;28;20562;-61
2024/03/30 13:05:48;;;;;;;1.90;1.80;;;11.70;99.90;;;;;;4951939;28;20610;-61
2024/03/30 13:08:15;;;;;;;1.83;1.83;;;11.60;99.90;;;;;;4950773;28;20291;-61
2024/03/30 13:10:43;;;;;;;2.00;2.00;;;11.50;99.90;;;;;;4948515;28;20230;-61
2024/03/30 13:13:12;;;;;;;2.07;2.07;;;11.50;99.90;;;;;;4945892;28;20246;-61
2024/03/30 13:15:40;;;;;;;2.37;2.30;;;11.50;99.90;;;;;;4942998;28;20315;-61
2024/03/30 13:18:11;;;;;;;2.40;2.33;;;11.50;99.90;;;;;;4937037;28;20305;-61
2024/03/30 13:20:41;;;;;;;3.63;3.13;;;11.50;99.90;;;;;;4948711;28;20189;-60
2024/03/30 13:23:10;;;;;;;3.20;2.90;;;11.60;99.90;;;;;;4943696;28;20292;-62
2024/03/30 13:25:37;;;;;;;3.20;3.10;;;11.50;99.90;;;;;;4948619;28;20227;-61
2024/03/30 13:28:05;;;;;;;3.53;3.30;;;11.60;99.90;;;;;;4951208;28;20236;-61
2024/03/30 13:30:33;;;;;;;3.00;2.90;;;11.70;99.90;;;;;;4950590;28;20315;-61
2024/03/30 13:33:00;;;;;;;3.00;2.80;;;11.80;99.90;;;;;;4947467;28;20234;-62
2024/03/30 13:35:27;;;;;;;3.17;3.07;;;11.80;99.90;;;;;;4951368;28;20228;-61